sensor_id;sensor_type;location;lat;lon;timestamp;temperature;humidity
9762;DHT22;4920;49.594;11.022;2023-03-08T00:01:37;5.40;99.90
9762;DHT22;4920;49.594;11.022;2023-03-08T00:04:05;5.30;99.90
9762;DHT22;4920;49.594;11.022;2023-03-08T00:06:34;5.30;99.90
9762;DHT22;4920;49.594;11.022;2023-03-08T00:09:03;5.30;99.90
9762;DHT22;4920;49.594;11.022;2023-03-08T00:11:31;5.30;99.90
9762;DHT22;4920;49.594;11.022;2023-03-08T00:14:00;5.30;99.90
9762;DHT22;4920;49.594;11.022;2023-03-08T00:16:30;5.30;99.90
9762;DHT22;4920;49.594;11.022;2023-03-08T00:18:59;5.30;99.90
9762;DHT22;4920;49.594;11.022;2023-03-08T00:21:28;5.30;99.90
9762;DHT22;4920;49.594;11.022;2023-03-08T00:23:56;5.30;99.90
9762;DHT22;4920;49.594;11.022;2023-03-08T00:26:26;5.30;99.90
9762;DHT22;4920;49.594;11.022;2023-03-08T00:28:55;5.30;99.90
9762;DHT22;4920;49.594;11.022;2023-03-08T00:31:27;5.30;99.90
9762;DHT22;4920;49.594;11.022;2023-03-08T00:33:57;5.30;99.90
9762;DHT22;4920;49.594;11.022;2023-03-08T00:36:26;5.30;99.90
9762;DHT22;4920;49.594;11.022;2023-03-08T00:38:55;5.30;99.90
9762;DHT22;4920;49.594;11.022;2023-03-08T00:41:24;5.30;99.90
9762;DHT22;4920;49.594;11.022;2023-03-08T00:43:53;5.30;99.90
9762;DHT22;4920;49.594;11.022;2023-03-08T00:46:21;5.40;99.90
9762;DHT22;4920;49.594;11.022;2023-03-08T00:48:50;5.30;99.90
9762;DHT22;4920;49.594;11.022;2023-03-08T00:51:20;5.40;99.90
9762;DHT22;4920;49.594;11.022;2023-03-08T00:53:49;5.40;99.90
9762;DHT22;4920;49.594;11.022;2023-03-08T00:56:18;5.30;99.90
9762;DHT22;4920;49.594;11.022;2023-03-08T00:58:47;5.30;99.90
9762;DHT22;4920;49.594;11.022;2023-03-08T01:01:17;5.30;99.90
9762;DHT22;4920;49.594;11.022;2023-03-08T01:03:48;5.30;99.90
9762;DHT22;4920;49.594;11.022;2023-03-08T01:06:18;5.30;99.90
9762;DHT22;4920;49.594;11.022;2023-03-08T01:08:48;5.40;99.90
9762;DHT22;4920;49.594;11.022;2023-03-08T01:11:18;5.40;99.90
9762;DHT22;4920;49.594;11.022;2023-03-08T01:13:48;5.40;99.90
9762;DHT22;4920;49.594;11.022;2023-03-08T01:16:19;5.40;99.90
9762;DHT22;4920;49.594;11.022;2023-03-08T01:18:48;5.40;99.90
9762;DHT22;4920;49.594;11.022;2023-03-08T01:21:19;5.30;99.90
9762;DHT22;4920;49.594;11.022;2023-03-08T01:23:50;5.30;99.90
9762;DHT22;4920;49.594;11.022;2023-03-08T01:26:20;5.30;99.90
9762;DHT22;4920;49.594;11.022;2023-03-08T01:28:50;5.40;99.90
9762;DHT22;4920;49.594;11.022;2023-03-08T01:31:21;5.30;99.90
9762;DHT22;4920;49.594;11.022;2023-03-08T01:33:52;5.30;99.90
9762;DHT22;4920;49.594;11.022;2023-03-08T01:36:22;5.30;99.90
9762;DHT22;4920;49.594;11.022;2023-03-08T01:38:53;5.30;99.90
9762;DHT22;4920;49.594;11.022;2023-03-08T01:41:24;5.30;99.90
9762;DHT22;4920;49.594;11.022;2023-03-08T01:43:53;5.40;99.90
9762;DHT22;4920;49.594;11.022;2023-03-08T01:46:26;5.40;99.90
9762;DHT22;4920;49.594;11.022;2023-03-08T01:49:02;5.30;99.90
9762;DHT22;4920;49.594;11.022;2023-03-08T01:51:36;5.30;99.90
9762;DHT22;4920;49.594;11.022;2023-03-08T01:54:10;5.30;99.90
9762;DHT22;4920;49.594;11.022;2023-03-08T01:56:40;5.30;99.90
9762;DHT22;4920;49.594;11.022;2023-03-08T01:59:10;5.20;99.90
9762;DHT22;4920;49.594;11.022;2023-03-08T02:01:40;5.20;99.90
9762;DHT22;4920;49.594;11.022;2023-03-08T02:04:09;5.10;99.90
9762;DHT22;4920;49.594;11.022;2023-03-08T02:06:38;5.10;99.90
9762;DHT22;4920;49.594;11.022;2023-03-08T02:09:08;5.00;99.90
9762;DHT22;4920;49.594;11.022;2023-03-08T02:11:38;5.00;99.90
9762;DHT22;4920;49.594;11.022;2023-03-08T02:14:08;5.00;99.90
9762;DHT22;4920;49.594;11.022;2023-03-08T02:16:40;5.00;99.90
9762;DHT22;4920;49.594;11.022;2023-03-08T02:19:13;4.90;99.90
9762;DHT22;4920;49.594;11.022;2023-03-08T02:21:45;4.90;99.90
9762;DHT22;4920;49.594;11.022;2023-03-08T02:24:20;4.90;99.90
9762;DHT22;4920;49.594;11.022;2023-03-08T02:26:51;5.00;99.90
9762;DHT22;4920;49.594;11.022;2023-03-08T02:29:20;5.00;99.90
9762;DHT22;4920;49.594;11.022;2023-03-08T02:31:48;5.00;99.90
9762;DHT22;4920;49.594;11.022;2023-03-08T02:34:17;5.00;99.90
9762;DHT22;4920;49.594;11.022;2023-03-08T02:36:46;5.00;99.90
9762;DHT22;4920;49.594;11.022;2023-03-08T02:39:14;5.00;99.90
9762;DHT22;4920;49.594;11.022;2023-03-08T02:41:44;5.00;99.90
9762;DHT22;4920;49.594;11.022;2023-03-08T02:44:13;4.90;99.90
9762;DHT22;4920;49.594;11.022;2023-03-08T02:46:42;4.90;99.90
9762;DHT22;4920;49.594;11.022;2023-03-08T02:49:11;4.90;99.90
9762;DHT22;4920;49.594;11.022;2023-03-08T02:51:40;4.90;99.90
9762;DHT22;4920;49.594;11.022;2023-03-08T02:54:08;4.80;99.90
9762;DHT22;4920;49.594;11.022;2023-03-08T02:56:37;4.80;99.90
9762;DHT22;4920;49.594;11.022;2023-03-08T02:59:09;4.80;99.90
9762;DHT22;4920;49.594;11.022;2023-03-08T03:01:37;4.80;99.90
9762;DHT22;4920;49.594;11.022;2023-03-08T03:04:06;4.80;99.90
9762;DHT22;4920;49.594;11.022;2023-03-08T03:06:35;4.90;99.90
9762;DHT22;4920;49.594;11.022;2023-03-08T03:09:05;4.90;99.90
9762;DHT22;4920;49.594;11.022;2023-03-08T03:11:34;4.90;99.90
9762;DHT22;4920;49.594;11.022;2023-03-08T03:14:03;4.90;99.90
9762;DHT22;4920;49.594;11.022;2023-03-08T03:16:39;4.90;99.90
9762;DHT22;4920;49.594;11.022;2023-03-08T03:19:10;4.90;99.90
9762;DHT22;4920;49.594;11.022;2023-03-08T03:21:40;4.90;99.90
9762;DHT22;4920;49.594;11.022;2023-03-08T03:24:09;4.90;99.90
9762;DHT22;4920;49.594;11.022;2023-03-08T03:26:44;4.90;99.90
9762;DHT22;4920;49.594;11.022;2023-03-08T03:29:12;4.90;99.90
9762;DHT22;4920;49.594;11.022;2023-03-08T03:31:44;4.80;99.90
9762;DHT22;4920;49.594;11.022;2023-03-08T03:34:16;4.90;99.90
9762;DHT22;4920;49.594;11.022;2023-03-08T03:36:46;4.80;99.90
9762;DHT22;4920;49.594;11.022;2023-03-08T03:39:15;4.80;99.90
9762;DHT22;4920;49.594;11.022;2023-03-08T03:41:47;4.80;99.90
9762;DHT22;4920;49.594;11.022;2023-03-08T03:44:16;4.70;99.90
9762;DHT22;4920;49.594;11.022;2023-03-08T03:46:48;4.70;99.90
9762;DHT22;4920;49.594;11.022;2023-03-08T03:49:22;4.70;99.90
9762;DHT22;4920;49.594;11.022;2023-03-08T03:51:51;4.70;99.90
9762;DHT22;4920;49.594;11.022;2023-03-08T03:54:33;4.60;99.90
9762;DHT22;4920;49.594;11.022;2023-03-08T03:57:02;4.60;99.90
9762;DHT22;4920;49.594;11.022;2023-03-08T03:59:35;4.60;99.90
9762;DHT22;4920;49.594;11.022;2023-03-08T04:02:05;4.50;99.90
9762;DHT22;4920;49.594;11.022;2023-03-08T04:04:40;4.40;99.90
9762;DHT22;4920;49.594;11.022;2023-03-08T04:07:12;4.40;99.90
9762;DHT22;4920;49.594;11.022;2023-03-08T04:09:48;4.40;99.90
9762;DHT22;4920;49.594;11.022;2023-03-08T04:12:16;4.30;99.90
9762;DHT22;4920;49.594;11.022;2023-03-08T04:14:45;4.30;99.90
9762;DHT22;4920;49.594;11.022;2023-03-08T04:17:17;4.30;99.90
9762;DHT22;4920;49.594;11.022;2023-03-08T04:19:50;4.40;99.90
9762;DHT22;4920;49.594;11.022;2023-03-08T04:22:20;4.40;99.90
9762;DHT22;4920;49.594;11.022;2023-03-08T04:24:58;4.40;99.90
9762;DHT22;4920;49.594;11.022;2023-03-08T04:27:41;4.40;99.90
9762;DHT22;4920;49.594;11.022;2023-03-08T04:30:11;4.40;99.90
9762;DHT22;4920;49.594;11.022;2023-03-08T04:32:41;4.40;99.90
9762;DHT22;4920;49.594;11.022;2023-03-08T04:35:12;4.30;99.90
9762;DHT22;4920;49.594;11.022;2023-03-08T04:37:43;4.20;99.90
9762;DHT22;4920;49.594;11.022;2023-03-08T04:40:17;4.20;99.90
9762;DHT22;4920;49.594;11.022;2023-03-08T04:42:52;4.10;99.90
9762;DHT22;4920;49.594;11.022;2023-03-08T04:45:26;4.10;99.90
9762;DHT22;4920;49.594;11.022;2023-03-08T04:47:59;4.10;99.90
9762;DHT22;4920;49.594;11.022;2023-03-08T04:50:30;4.10;99.90
9762;DHT22;4920;49.594;11.022;2023-03-08T04:52:58;4.00;99.90
9762;DHT22;4920;49.594;11.022;2023-03-08T04:55:28;4.00;99.90
9762;DHT22;4920;49.594;11.022;2023-03-08T04:57:57;4.00;99.90
9762;DHT22;4920;49.594;11.022;2023-03-08T05:00:28;4.00;99.90
9762;DHT22;4920;49.594;11.022;2023-03-08T05:02:59;3.90;99.90
9762;DHT22;4920;49.594;11.022;2023-03-08T05:05:28;3.90;99.90
9762;DHT22;4920;49.594;11.022;2023-03-08T05:07:57;3.80;99.90
9762;DHT22;4920;49.594;11.022;2023-03-08T05:10:31;3.80;99.90
9762;DHT22;4920;49.594;11.022;2023-03-08T05:13:00;3.80;99.90
9762;DHT22;4920;49.594;11.022;2023-03-08T05:15:28;3.70;99.90
9762;DHT22;4920;49.594;11.022;2023-03-08T05:17:58;3.70;99.90
9762;DHT22;4920;49.594;11.022;2023-03-08T05:20:27;3.70;99.90
9762;DHT22;4920;49.594;11.022;2023-03-08T05:22:56;3.70;99.90
9762;DHT22;4920;49.594;11.022;2023-03-08T05:25:33;3.60;99.90
9762;DHT22;4920;49.594;11.022;2023-03-08T05:28:01;3.60;99.90
9762;DHT22;4920;49.594;11.022;2023-03-08T05:30:30;3.60;99.90
9762;DHT22;4920;49.594;11.022;2023-03-08T05:33:00;3.60;99.90
9762;DHT22;4920;49.594;11.022;2023-03-08T05:35:29;3.60;99.90
9762;DHT22;4920;49.594;11.022;2023-03-08T05:37:58;3.50;99.90
9762;DHT22;4920;49.594;11.022;2023-03-08T05:40:27;3.50;99.90
9762;DHT22;4920;49.594;11.022;2023-03-08T05:42:56;3.50;99.90
9762;DHT22;4920;49.594;11.022;2023-03-08T05:45:26;3.50;99.90
9762;DHT22;4920;49.594;11.022;2023-03-08T05:47:54;3.50;99.90
9762;DHT22;4920;49.594;11.022;2023-03-08T05:50:25;3.50;99.90
9762;DHT22;4920;49.594;11.022;2023-03-08T05:52:54;3.50;99.90
9762;DHT22;4920;49.594;11.022;2023-03-08T05:55:27;3.50;99.90
9762;DHT22;4920;49.594;11.022;2023-03-08T05:57:57;3.50;99.90
9762;DHT22;4920;49.594;11.022;2023-03-08T06:00:26;3.50;99.90
9762;DHT22;4920;49.594;11.022;2023-03-08T06:02:57;3.50;99.90
9762;DHT22;4920;49.594;11.022;2023-03-08T06:05:34;3.50;99.90
9762;DHT22;4920;49.594;11.022;2023-03-08T06:08:03;3.50;99.90
9762;DHT22;4920;49.594;11.022;2023-03-08T06:10:32;3.40;99.90
9762;DHT22;4920;49.594;11.022;2023-03-08T06:13:01;3.50;99.90
9762;DHT22;4920;49.594;11.022;2023-03-08T06:15:30;3.50;99.90
9762;DHT22;4920;49.594;11.022;2023-03-08T06:18:00;3.50;99.90
9762;DHT22;4920;49.594;11.022;2023-03-08T06:20:29;3.50;99.90
9762;DHT22;4920;49.594;11.022;2023-03-08T06:23:01;3.60;99.90
9762;DHT22;4920;49.594;11.022;2023-03-08T06:25:30;3.70;99.90
9762;DHT22;4920;49.594;11.022;2023-03-08T06:27:59;3.70;99.90
9762;DHT22;4920;49.594;11.022;2023-03-08T06:30:35;3.70;99.90
9762;DHT22;4920;49.594;11.022;2023-03-08T06:33:05;3.70;99.90
9762;DHT22;4920;49.594;11.022;2023-03-08T06:35:34;3.70;99.90
9762;DHT22;4920;49.594;11.022;2023-03-08T06:38:07;3.80;99.90
9762;DHT22;4920;49.594;11.022;2023-03-08T06:40:36;3.80;99.90
9762;DHT22;4920;49.594;11.022;2023-03-08T06:43:05;3.90;99.90
9762;DHT22;4920;49.594;11.022;2023-03-08T06:45:36;4.00;99.90
9762;DHT22;4920;49.594;11.022;2023-03-08T06:48:06;4.00;99.90
9762;DHT22;4920;49.594;11.022;2023-03-08T06:50:35;4.10;99.90
9762;DHT22;4920;49.594;11.022;2023-03-08T06:53:06;4.10;99.90
9762;DHT22;4920;49.594;11.022;2023-03-08T06:55:46;4.20;99.90
9762;DHT22;4920;49.594;11.022;2023-03-08T06:58:15;4.20;99.90
9762;DHT22;4920;49.594;11.022;2023-03-08T07:00:44;4.40;99.90
9762;DHT22;4920;49.594;11.022;2023-03-08T07:03:13;4.40;99.90
9762;DHT22;4920;49.594;11.022;2023-03-08T07:05:42;4.50;99.90
9762;DHT22;4920;49.594;11.022;2023-03-08T07:08:12;4.50;99.90
9762;DHT22;4920;49.594;11.022;2023-03-08T07:10:41;4.50;99.90
9762;DHT22;4920;49.594;11.022;2023-03-08T07:13:09;4.60;99.90
9762;DHT22;4920;49.594;11.022;2023-03-08T07:15:39;4.60;99.90
9762;DHT22;4920;49.594;11.022;2023-03-08T07:18:08;4.70;99.90
9762;DHT22;4920;49.594;11.022;2023-03-08T07:20:36;4.70;99.90
9762;DHT22;4920;49.594;11.022;2023-03-08T07:23:05;4.80;99.90
9762;DHT22;4920;49.594;11.022;2023-03-08T07:25:37;4.80;99.90
9762;DHT22;4920;49.594;11.022;2023-03-08T07:28:06;4.90;99.90
9762;DHT22;4920;49.594;11.022;2023-03-08T07:30:35;4.90;99.90
9762;DHT22;4920;49.594;11.022;2023-03-08T07:33:03;5.00;99.90
9762;DHT22;4920;49.594;11.022;2023-03-08T07:35:32;5.00;99.90
9762;DHT22;4920;49.594;11.022;2023-03-08T07:38:01;5.10;99.90
9762;DHT22;4920;49.594;11.022;2023-03-08T07:40:36;5.10;99.90
9762;DHT22;4920;49.594;11.022;2023-03-08T07:43:04;5.10;99.90
9762;DHT22;4920;49.594;11.022;2023-03-08T07:45:49;5.00;99.90
9762;DHT22;4920;49.594;11.022;2023-03-08T07:48:17;5.10;99.90
9762;DHT22;4920;49.594;11.022;2023-03-08T07:50:46;5.00;99.90
9762;DHT22;4920;49.594;11.022;2023-03-08T07:53:15;5.10;99.90
9762;DHT22;4920;49.594;11.022;2023-03-08T07:55:45;5.10;99.90
9762;DHT22;4920;49.594;11.022;2023-03-08T07:58:13;5.00;99.90
9762;DHT22;4920;49.594;11.022;2023-03-08T08:00:42;4.90;99.90
9762;DHT22;4920;49.594;11.022;2023-03-08T08:03:11;4.90;99.90
9762;DHT22;4920;49.594;11.022;2023-03-08T08:05:39;4.80;99.90
9762;DHT22;4920;49.594;11.022;2023-03-08T08:08:08;4.80;99.90
9762;DHT22;4920;49.594;11.022;2023-03-08T08:10:40;4.70;99.90
9762;DHT22;4920;49.594;11.022;2023-03-08T08:13:10;4.60;1.00
9762;DHT22;4920;49.594;11.022;2023-03-08T08:15:38;4.50;99.90
9762;DHT22;4920;49.594;11.022;2023-03-08T08:18:07;4.40;99.90
9762;DHT22;4920;49.594;11.022;2023-03-08T08:20:36;4.30;1.00
9762;DHT22;4920;49.594;11.022;2023-03-08T08:23:05;4.30;1.00
9762;DHT22;4920;49.594;11.022;2023-03-08T08:25:34;4.20;99.90
9762;DHT22;4920;49.594;11.022;2023-03-08T08:28:02;4.10;99.90
9762;DHT22;4920;49.594;11.022;2023-03-08T08:30:32;4.00;99.90
9762;DHT22;4920;49.594;11.022;2023-03-08T08:33:01;3.90;1.00
9762;DHT22;4920;49.594;11.022;2023-03-08T08:35:30;3.90;1.00
9762;DHT22;4920;49.594;11.022;2023-03-08T08:38:09;3.90;1.00
9762;DHT22;4920;49.594;11.022;2023-03-08T08:40:37;3.90;1.00
9762;DHT22;4920;49.594;11.022;2023-03-08T08:43:06;3.80;1.00
9762;DHT22;4920;49.594;11.022;2023-03-08T08:45:41;3.70;1.00
9762;DHT22;4920;49.594;11.022;2023-03-08T08:48:10;3.60;1.00
9762;DHT22;4920;49.594;11.022;2023-03-08T08:50:39;3.60;1.00
9762;DHT22;4920;49.594;11.022;2023-03-08T08:53:08;3.60;1.00
9762;DHT22;4920;49.594;11.022;2023-03-08T08:55:37;3.60;1.00
9762;DHT22;4920;49.594;11.022;2023-03-08T08:58:08;3.60;1.00
9762;DHT22;4920;49.594;11.022;2023-03-08T09:00:39;3.60;1.00
9762;DHT22;4920;49.594;11.022;2023-03-08T09:03:08;3.70;1.00
9762;DHT22;4920;49.594;11.022;2023-03-08T09:05:38;3.70;1.00
9762;DHT22;4920;49.594;11.022;2023-03-08T09:08:08;3.70;1.00
9762;DHT22;4920;49.594;11.022;2023-03-08T09:10:38;3.80;1.00
9762;DHT22;4920;49.594;11.022;2023-03-08T09:13:07;4.00;1.00
9762;DHT22;4920;49.594;11.022;2023-03-08T09:15:37;4.10;1.00
9762;DHT22;4920;49.594;11.022;2023-03-08T09:18:06;4.20;1.00
9762;DHT22;4920;49.594;11.022;2023-03-08T09:20:35;4.30;1.00
9762;DHT22;4920;49.594;11.022;2023-03-08T09:23:03;4.50;1.00
9762;DHT22;4920;49.594;11.022;2023-03-08T09:25:32;4.40;1.00
9762;DHT22;4920;49.594;11.022;2023-03-08T09:28:01;4.40;1.00
9762;DHT22;4920;49.594;11.022;2023-03-08T09:30:29;4.50;1.00
9762;DHT22;4920;49.594;11.022;2023-03-08T09:33:00;4.40;1.00
9762;DHT22;4920;49.594;11.022;2023-03-08T09:35:30;4.40;1.00
9762;DHT22;4920;49.594;11.022;2023-03-08T09:37:58;4.30;1.00
9762;DHT22;4920;49.594;11.022;2023-03-08T09:40:28;4.20;1.00
9762;DHT22;4920;49.594;11.022;2023-03-08T09:43:04;4.10;1.00
9762;DHT22;4920;49.594;11.022;2023-03-08T09:45:34;4.00;1.00
9762;DHT22;4920;49.594;11.022;2023-03-08T09:48:09;3.90;1.00
9762;DHT22;4920;49.594;11.022;2023-03-08T09:50:44;3.80;1.00
9762;DHT22;4920;49.594;11.022;2023-03-08T09:53:20;3.80;1.00
9762;DHT22;4920;49.594;11.022;2023-03-08T09:55:53;3.80;1.00
9762;DHT22;4920;49.594;11.022;2023-03-08T09:58:30;3.80;1.00
9762;DHT22;4920;49.594;11.022;2023-03-08T10:01:09;3.80;1.00
9762;DHT22;4920;49.594;11.022;2023-03-08T10:06:46;3.70;1.00
9762;DHT22;4920;49.594;11.022;2023-03-08T10:09:26;3.70;1.00
9762;DHT22;4920;49.594;11.022;2023-03-08T10:12:02;3.70;1.00
9762;DHT22;4920;49.594;11.022;2023-03-08T10:14:42;3.60;1.00
9762;DHT22;4920;49.594;11.022;2023-03-08T10:17:19;3.60;1.00
9762;DHT22;4920;49.594;11.022;2023-03-08T10:19:53;3.60;1.00
9762;DHT22;4920;49.594;11.022;2023-03-08T10:22:28;3.60;1.00
9762;DHT22;4920;49.594;11.022;2023-03-08T10:24:59;3.60;1.00
9762;DHT22;4920;49.594;11.022;2023-03-08T10:27:32;3.60;1.00
9762;DHT22;4920;49.594;11.022;2023-03-08T10:30:12;3.50;1.00
9762;DHT22;4920;49.594;11.022;2023-03-08T10:32:43;3.50;1.00
9762;DHT22;4920;49.594;11.022;2023-03-08T10:35:12;3.40;1.00
9762;DHT22;4920;49.594;11.022;2023-03-08T10:37:49;3.40;1.00
9762;DHT22;4920;49.594;11.022;2023-03-08T10:40:19;3.40;1.00
9762;DHT22;4920;49.594;11.022;2023-03-08T10:42:52;3.50;1.00
9762;DHT22;4920;49.594;11.022;2023-03-08T10:45:23;3.50;1.00
9762;DHT22;4920;49.594;11.022;2023-03-08T10:47:54;3.60;1.00
9762;DHT22;4920;49.594;11.022;2023-03-08T10:50:25;3.70;1.00
9762;DHT22;4920;49.594;11.022;2023-03-08T10:53:07;3.70;1.00
9762;DHT22;4920;49.594;11.022;2023-03-08T10:55:42;3.70;1.00
9762;DHT22;4920;49.594;11.022;2023-03-08T10:58:32;3.80;1.00
9762;DHT22;4920;49.594;11.022;2023-03-08T11:01:04;3.90;1.00
9762;DHT22;4920;49.594;11.022;2023-03-08T11:03:33;3.90;1.00
9762;DHT22;4920;49.594;11.022;2023-03-08T11:06:04;4.00;1.00
9762;DHT22;4920;49.594;11.022;2023-03-08T11:08:36;3.90;1.00
9762;DHT22;4920;49.594;11.022;2023-03-08T11:11:08;3.90;1.00
9762;DHT22;4920;49.594;11.022;2023-03-08T11:13:38;3.80;1.00
9762;DHT22;4920;49.594;11.022;2023-03-08T11:16:18;3.70;1.00
9762;DHT22;4920;49.594;11.022;2023-03-08T11:18:55;3.70;1.00
9762;DHT22;4920;49.594;11.022;2023-03-08T11:21:32;3.70;1.00
9762;DHT22;4920;49.594;11.022;2023-03-08T11:24:17;3.60;1.00
9762;DHT22;4920;49.594;11.022;2023-03-08T11:26:56;3.60;1.00
9762;DHT22;4920;49.594;11.022;2023-03-08T11:29:35;3.60;1.00
9762;DHT22;4920;49.594;11.022;2023-03-08T11:32:15;3.60;1.00
9762;DHT22;4920;49.594;11.022;2023-03-08T11:34:56;3.60;1.00
9762;DHT22;4920;49.594;11.022;2023-03-08T11:37:33;3.60;1.00
9762;DHT22;4920;49.594;11.022;2023-03-08T11:40:13;3.70;1.00
9762;DHT22;4920;49.594;11.022;2023-03-08T11:42:53;3.60;1.00
9762;DHT22;4920;49.594;11.022;2023-03-08T11:45:28;3.70;1.00
9762;DHT22;4920;49.594;11.022;2023-03-08T11:51:05;3.80;1.00
9762;DHT22;4920;49.594;11.022;2023-03-08T11:53:45;3.80;1.00
9762;DHT22;4920;49.594;11.022;2023-03-08T11:56:43;3.90;1.00
9762;DHT22;4920;49.594;11.022;2023-03-08T11:59:18;4.00;1.00
9762;DHT22;4920;49.594;11.022;2023-03-08T12:01:51;4.10;1.00
9762;DHT22;4920;49.594;11.022;2023-03-08T12:04:25;4.10;1.00
9762;DHT22;4920;49.594;11.022;2023-03-08T12:06:59;4.20;1.00
9762;DHT22;4920;49.594;11.022;2023-03-08T12:09:33;4.30;1.00
9762;DHT22;4920;49.594;11.022;2023-03-08T12:12:09;4.30;1.00
9762;DHT22;4920;49.594;11.022;2023-03-08T12:14:45;4.30;1.00
9762;DHT22;4920;49.594;11.022;2023-03-08T12:17:18;4.30;1.00
9762;DHT22;4920;49.594;11.022;2023-03-08T12:19:48;4.30;1.00
9762;DHT22;4920;49.594;11.022;2023-03-08T12:22:27;4.30;1.00
9762;DHT22;4920;49.594;11.022;2023-03-08T12:25:06;4.30;1.00
9762;DHT22;4920;49.594;11.022;2023-03-08T12:27:43;4.30;1.00
9762;DHT22;4920;49.594;11.022;2023-03-08T12:30:22;4.40;1.00
9762;DHT22;4920;49.594;11.022;2023-03-08T12:32:53;4.40;1.00
9762;DHT22;4920;49.594;11.022;2023-03-08T12:35:28;4.40;1.00
9762;DHT22;4920;49.594;11.022;2023-03-08T12:37:59;4.40;1.00
9762;DHT22;4920;49.594;11.022;2023-03-08T12:40:40;4.50;1.00
9762;DHT22;4920;49.594;11.022;2023-03-08T12:43:13;4.50;1.00
9762;DHT22;4920;49.594;11.022;2023-03-08T12:45:44;4.50;1.00
9762;DHT22;4920;49.594;11.022;2023-03-08T12:48:20;4.50;1.00
9762;DHT22;4920;49.594;11.022;2023-03-08T12:50:57;4.50;1.00
9762;DHT22;4920;49.594;11.022;2023-03-08T12:53:38;4.50;1.00
9762;DHT22;4920;49.594;11.022;2023-03-08T12:56:26;4.50;1.00
9762;DHT22;4920;49.594;11.022;2023-03-08T12:58:59;4.50;1.00
9762;DHT22;4920;49.594;11.022;2023-03-08T13:01:38;4.60;1.00
9762;DHT22;4920;49.594;11.022;2023-03-08T13:04:26;4.60;1.00
9762;DHT22;4920;49.594;11.022;2023-03-08T13:07:25;4.60;1.00
9762;DHT22;4920;49.594;11.022;2023-03-08T13:10:00;4.70;1.00
9762;DHT22;4920;49.594;11.022;2023-03-08T13:12:41;4.70;1.00
9762;DHT22;4920;49.594;11.022;2023-03-08T13:15:22;4.70;3.20
9762;DHT22;4920;49.594;11.022;2023-03-08T13:17:57;4.70;6.10
9762;DHT22;4920;49.594;11.022;2023-03-08T13:20:33;4.70;12.20
9762;DHT22;4920;49.594;11.022;2023-03-08T13:23:19;4.80;10.60
9762;DHT22;4920;49.594;11.022;2023-03-08T13:25:59;4.90;10.30
9762;DHT22;4920;49.594;11.022;2023-03-08T13:28:32;4.90;14.10
9762;DHT22;4920;49.594;11.022;2023-03-08T13:31:17;4.90;17.30
9762;DHT22;4920;49.594;11.022;2023-03-08T13:33:48;5.00;19.50
9762;DHT22;4920;49.594;11.022;2023-03-08T13:36:19;5.10;20.00
9762;DHT22;4920;49.594;11.022;2023-03-08T13:38:59;5.10;23.90
9762;DHT22;4920;49.594;11.022;2023-03-08T13:41:35;5.20;27.20
9762;DHT22;4920;49.594;11.022;2023-03-08T13:44:06;5.20;28.70
9762;DHT22;4920;49.594;11.022;2023-03-08T13:46:37;5.30;32.40
9762;DHT22;4920;49.594;11.022;2023-03-08T13:49:13;5.40;33.60
9762;DHT22;4920;49.594;11.022;2023-03-08T13:51:44;5.50;38.80
9762;DHT22;4920;49.594;11.022;2023-03-08T13:54:18;5.50;41.40
9762;DHT22;4920;49.594;11.022;2023-03-08T13:56:51;5.70;35.50
9762;DHT22;4920;49.594;11.022;2023-03-08T13:59:20;5.70;35.20
9762;DHT22;4920;49.594;11.022;2023-03-08T14:01:52;5.70;34.90
9762;DHT22;4920;49.594;11.022;2023-03-08T14:04:23;5.70;39.30
9762;DHT22;4920;49.594;11.022;2023-03-08T14:06:53;5.80;42.60
9762;DHT22;4920;49.594;11.022;2023-03-08T14:09:22;5.80;45.90
9762;DHT22;4920;49.594;11.022;2023-03-08T14:11:55;5.80;46.90
9762;DHT22;4920;49.594;11.022;2023-03-08T14:14:28;5.80;45.30
9762;DHT22;4920;49.594;11.022;2023-03-08T14:17:00;5.90;49.70
9762;DHT22;4920;49.594;11.022;2023-03-08T14:19:31;5.90;54.00
9762;DHT22;4920;49.594;11.022;2023-03-08T14:22:02;6.00;53.50
9762;DHT22;4920;49.594;11.022;2023-03-08T14:24:33;6.00;55.90
9762;DHT22;4920;49.594;11.022;2023-03-08T14:27:04;6.10;59.10
9762;DHT22;4920;49.594;11.022;2023-03-08T14:29:34;6.10;58.50
9762;DHT22;4920;49.594;11.022;2023-03-08T14:32:27;6.10;61.90
9762;DHT22;4920;49.594;11.022;2023-03-08T14:35:04;6.20;72.10
9762;DHT22;4920;49.594;11.022;2023-03-08T14:37:34;6.20;80.80
9762;DHT22;4920;49.594;11.022;2023-03-08T14:40:22;6.30;75.10
9762;DHT22;4920;49.594;11.022;2023-03-08T14:42:54;6.30;70.10
9762;DHT22;4920;49.594;11.022;2023-03-08T14:45:25;6.30;68.20
9762;DHT22;4920;49.594;11.022;2023-03-08T14:47:58;6.30;72.50
9762;DHT22;4920;49.594;11.022;2023-03-08T14:50:29;6.30;82.50
9762;DHT22;4920;49.594;11.022;2023-03-08T14:52:59;6.30;82.60
9762;DHT22;4920;49.594;11.022;2023-03-08T14:55:30;6.40;91.40
9762;DHT22;4920;49.594;11.022;2023-03-08T14:58:01;6.50;90.30
9762;DHT22;4920;49.594;11.022;2023-03-08T15:00:30;6.60;91.30
9762;DHT22;4920;49.594;11.022;2023-03-08T15:03:01;6.60;87.00
9762;DHT22;4920;49.594;11.022;2023-03-08T15:05:30;6.60;87.30
9762;DHT22;4920;49.594;11.022;2023-03-08T15:07:59;6.60;80.10
9762;DHT22;4920;49.594;11.022;2023-03-08T15:10:30;6.60;82.20
9762;DHT22;4920;49.594;11.022;2023-03-08T15:12:59;6.60;86.20
9762;DHT22;4920;49.594;11.022;2023-03-08T15:15:28;6.70;91.10
9762;DHT22;4920;49.594;11.022;2023-03-08T15:17:57;6.80;94.80
9762;DHT22;4920;49.594;11.022;2023-03-08T15:20:28;6.80;90.20
9762;DHT22;4920;49.594;11.022;2023-03-08T15:22:58;6.80;76.40
9762;DHT22;4920;49.594;11.022;2023-03-08T15:25:29;6.80;55.30
9762;DHT22;4920;49.594;11.022;2023-03-08T15:27:58;6.70;66.80
9762;DHT22;4920;49.594;11.022;2023-03-08T15:30:28;6.70;65.60
9762;DHT22;4920;49.594;11.022;2023-03-08T15:32:57;6.70;64.70
9762;DHT22;4920;49.594;11.022;2023-03-08T15:35:28;6.60;78.50
9762;DHT22;4920;49.594;11.022;2023-03-08T15:37:57;6.60;83.90
9762;DHT22;4920;49.594;11.022;2023-03-08T15:40:28;6.60;83.80
9762;DHT22;4920;49.594;11.022;2023-03-08T15:42:57;6.60;89.10
9762;DHT22;4920;49.594;11.022;2023-03-08T15:45:26;6.50;89.10
9762;DHT22;4920;49.594;11.022;2023-03-08T15:47:56;6.50;94.50
9762;DHT22;4920;49.594;11.022;2023-03-08T15:50:25;6.50;95.40
9762;DHT22;4920;49.594;11.022;2023-03-08T15:52:56;6.50;99.90
9762;DHT22;4920;49.594;11.022;2023-03-08T15:55:26;6.50;99.90
9762;DHT22;4920;49.594;11.022;2023-03-08T15:57:56;6.50;99.90
9762;DHT22;4920;49.594;11.022;2023-03-08T16:00:25;6.50;99.90
9762;DHT22;4920;49.594;11.022;2023-03-08T16:02:54;6.50;99.90
9762;DHT22;4920;49.594;11.022;2023-03-08T16:05:23;6.50;99.90
9762;DHT22;4920;49.594;11.022;2023-03-08T16:07:53;6.50;99.90
9762;DHT22;4920;49.594;11.022;2023-03-08T16:10:23;6.60;99.90
9762;DHT22;4920;49.594;11.022;2023-03-08T16:12:52;6.70;99.90
9762;DHT22;4920;49.594;11.022;2023-03-08T16:15:22;6.70;99.90
9762;DHT22;4920;49.594;11.022;2023-03-08T16:17:50;6.80;99.90
9762;DHT22;4920;49.594;11.022;2023-03-08T16:20:19;7.00;99.90
9762;DHT22;4920;49.594;11.022;2023-03-08T16:22:49;7.10;99.90
9762;DHT22;4920;49.594;11.022;2023-03-08T16:25:18;7.20;99.90
9762;DHT22;4920;49.594;11.022;2023-03-08T16:27:50;7.30;99.90
9762;DHT22;4920;49.594;11.022;2023-03-08T16:30:19;7.40;99.90
9762;DHT22;4920;49.594;11.022;2023-03-08T16:32:51;7.50;99.90
9762;DHT22;4920;49.594;11.022;2023-03-08T16:35:19;7.50;99.90
9762;DHT22;4920;49.594;11.022;2023-03-08T16:37:48;7.50;99.90
9762;DHT22;4920;49.594;11.022;2023-03-08T16:40:17;7.60;99.90
9762;DHT22;4920;49.594;11.022;2023-03-08T16:42:50;7.60;99.90